CheckWX is a tool to help pilots better visualize weather data.  It is not intended as a substitute for an official pre-flight weather briefing.

17:44:20 UTC

LZKZ TAF
Košice Airport
Košice, Slovakia (Slovak Republic)
TAF LZKZ 181700Z 1818/1918 03007KT 9999 SCT040 TEMPO 1818/1900 34015KT 7000 TSRA FEW030CB BKN050 TEMPO 1900/1905 3000 BCFG SCT003 BECMG 1906/1908 20006KT

Jun-18@
18:00 UTC

Jun-18 @ 18:00 UTC

Jun-19@
06:00 UTC

Jun-19 @ 06:00 UTC

TAF LZKZ 181700Z 1818/1918 03007KT 9999 SCT040
Wind
  • 030° at 7 KTS
Cloud Levels
  • Scattered at 4,000' AGL

Jun-18@
18:00 UTC

Jun-18 @ 18:00 UTC

Jun-19@
00:00 UTC

Jun-19 @ 00:00 UTC

TEMPO 1818/1900 34015KT 7000 TSRA FEW030CB BKN050

Temporary

Temporary Changes expected for less than half the time period

Wind
  • 340° at 15 KTS
Conditions
Thunderstorm, Rain
Cloud Levels
  • Few at 3,000' AGL
  • Broken at 5,000' AGL

Jun-19@
00:00 UTC

Jun-19 @ 00:00 UTC

Jun-19@
05:00 UTC

Jun-19 @ 05:00 UTC

TEMPO 1900/1905 3000 BCFG SCT003

Temporary

Temporary Changes expected for less than half the time period

Conditions
Patches of Fog
Cloud Levels
  • Scattered at 300' AGL

Jun-19@
06:00 UTC

Jun-19 @ 06:00 UTC

Jun-19@
18:00 UTC

Jun-19 @ 18:00 UTC

BECMG 1906/1908 20006KT

Becoming

Becoming Conditions expected by Wed, Jun 19, 2019 @ 08:00 UTC

Wind
  • 200° at 6 KTS
Cloud Levels
  • Scattered at 4,000' AGL